sensor_id;sensor_type;location;lat;lon;timestamp;temperature;humidity
18506;DHT22;9382;53.242;10.438;2022-07-23T00:01:19;16.40;99.90
18506;DHT22;9382;53.242;10.438;2022-07-23T00:03:46;16.40;99.90
18506;DHT22;9382;53.242;10.438;2022-07-23T00:06:12;16.40;99.90
18506;DHT22;9382;53.242;10.438;2022-07-23T00:08:39;16.40;99.90
18506;DHT22;9382;53.242;10.438;2022-07-23T00:11:06;16.30;99.90
18506;DHT22;9382;53.242;10.438;2022-07-23T00:13:33;16.30;99.90
18506;DHT22;9382;53.242;10.438;2022-07-23T00:16:02;16.20;99.90
18506;DHT22;9382;53.242;10.438;2022-07-23T00:18:28;16.20;99.90
18506;DHT22;9382;53.242;10.438;2022-07-23T00:20:56;16.10;99.90
18506;DHT22;9382;53.242;10.438;2022-07-23T00:23:22;16.10;99.90
18506;DHT22;9382;53.242;10.438;2022-07-23T00:25:50;16.10;99.90
18506;DHT22;9382;53.242;10.438;2022-07-23T00:28:17;16.00;99.90
18506;DHT22;9382;53.242;10.438;2022-07-23T00:30:45;16.00;99.90
18506;DHT22;9382;53.242;10.438;2022-07-23T00:33:13;15.90;99.90
18506;DHT22;9382;53.242;10.438;2022-07-23T00:35:40;15.90;99.90
18506;DHT22;9382;53.242;10.438;2022-07-23T00:38:08;15.90;99.90
18506;DHT22;9382;53.242;10.438;2022-07-23T00:40:37;15.90;99.90
18506;DHT22;9382;53.242;10.438;2022-07-23T00:43:04;15.90;99.90
18506;DHT22;9382;53.242;10.438;2022-07-23T00:45:32;15.80;99.90
18506;DHT22;9382;53.242;10.438;2022-07-23T00:47:59;15.80;99.90
18506;DHT22;9382;53.242;10.438;2022-07-23T00:50:28;15.80;99.90
18506;DHT22;9382;53.242;10.438;2022-07-23T00:52:55;15.80;99.90
18506;DHT22;9382;53.242;10.438;2022-07-23T00:55:22;15.70;99.90
18506;DHT22;9382;53.242;10.438;2022-07-23T00:57:50;15.70;99.90
18506;DHT22;9382;53.242;10.438;2022-07-23T01:00:17;15.70;99.90
18506;DHT22;9382;53.242;10.438;2022-07-23T01:02:43;15.70;99.90
18506;DHT22;9382;53.242;10.438;2022-07-23T01:05:10;15.60;99.90
18506;DHT22;9382;53.242;10.438;2022-07-23T01:07:38;15.60;99.90
18506;DHT22;9382;53.242;10.438;2022-07-23T01:10:06;15.60;99.90
18506;DHT22;9382;53.242;10.438;2022-07-23T01:12:53;15.60;99.90
18506;DHT22;9382;53.242;10.438;2022-07-23T01:15:20;15.50;99.90
18506;DHT22;9382;53.242;10.438;2022-07-23T01:17:47;15.50;99.90
18506;DHT22;9382;53.242;10.438;2022-07-23T01:20:14;15.50;99.90
18506;DHT22;9382;53.242;10.438;2022-07-23T01:22:42;15.40;99.90
18506;DHT22;9382;53.242;10.438;2022-07-23T01:25:09;15.40;99.90
18506;DHT22;9382;53.242;10.438;2022-07-23T01:27:36;15.30;99.90
18506;DHT22;9382;53.242;10.438;2022-07-23T01:30:04;15.20;99.90
18506;DHT22;9382;53.242;10.438;2022-07-23T01:32:31;15.20;99.90
18506;DHT22;9382;53.242;10.438;2022-07-23T01:34:58;15.10;99.90
18506;DHT22;9382;53.242;10.438;2022-07-23T01:37:25;15.00;99.90
18506;DHT22;9382;53.242;10.438;2022-07-23T01:39:53;15.00;99.90
18506;DHT22;9382;53.242;10.438;2022-07-23T01:42:19;14.90;99.90
18506;DHT22;9382;53.242;10.438;2022-07-23T01:44:46;14.90;99.90
18506;DHT22;9382;53.242;10.438;2022-07-23T01:47:13;14.90;99.90
18506;DHT22;9382;53.242;10.438;2022-07-23T01:49:40;14.80;99.90
18506;DHT22;9382;53.242;10.438;2022-07-23T01:52:06;14.80;99.90
18506;DHT22;9382;53.242;10.438;2022-07-23T01:54:37;14.80;99.90
18506;DHT22;9382;53.242;10.438;2022-07-23T01:57:05;14.80;99.90
18506;DHT22;9382;53.242;10.438;2022-07-23T01:59:32;14.80;99.90
18506;DHT22;9382;53.242;10.438;2022-07-23T02:01:59;14.80;99.90
18506;DHT22;9382;53.242;10.438;2022-07-23T02:04:26;14.80;99.90
18506;DHT22;9382;53.242;10.438;2022-07-23T02:06:54;14.80;99.90
18506;DHT22;9382;53.242;10.438;2022-07-23T02:09:20;14.70;99.90
18506;DHT22;9382;53.242;10.438;2022-07-23T02:11:48;14.80;99.90
18506;DHT22;9382;53.242;10.438;2022-07-23T02:14:16;14.70;99.90
18506;DHT22;9382;53.242;10.438;2022-07-23T02:16:43;14.70;99.90
18506;DHT22;9382;53.242;10.438;2022-07-23T02:19:10;14.70;99.90
18506;DHT22;9382;53.242;10.438;2022-07-23T02:21:37;14.60;99.90
18506;DHT22;9382;53.242;10.438;2022-07-23T02:24:04;14.50;99.90
18506;DHT22;9382;53.242;10.438;2022-07-23T02:26:31;14.50;99.90
18506;DHT22;9382;53.242;10.438;2022-07-23T02:29:00;14.50;99.90
18506;DHT22;9382;53.242;10.438;2022-07-23T02:31:28;14.40;99.90
18506;DHT22;9382;53.242;10.438;2022-07-23T02:33:55;14.30;99.90
18506;DHT22;9382;53.242;10.438;2022-07-23T02:36:22;14.30;99.90
18506;DHT22;9382;53.242;10.438;2022-07-23T02:38:49;14.20;99.90
18506;DHT22;9382;53.242;10.438;2022-07-23T02:41:16;14.20;99.90
18506;DHT22;9382;53.242;10.438;2022-07-23T02:43:42;14.10;99.90
18506;DHT22;9382;53.242;10.438;2022-07-23T02:46:09;14.10;99.90
18506;DHT22;9382;53.242;10.438;2022-07-23T02:48:37;14.10;99.90
18506;DHT22;9382;53.242;10.438;2022-07-23T02:51:04;14.00;99.90
18506;DHT22;9382;53.242;10.438;2022-07-23T02:53:31;14.00;99.90
18506;DHT22;9382;53.242;10.438;2022-07-23T02:55:58;14.00;99.90
18506;DHT22;9382;53.242;10.438;2022-07-23T02:58:24;14.00;99.90
18506;DHT22;9382;53.242;10.438;2022-07-23T03:00:52;14.00;99.90
18506;DHT22;9382;53.242;10.438;2022-07-23T03:03:19;14.00;99.90
18506;DHT22;9382;53.242;10.438;2022-07-23T03:05:47;14.00;99.90
18506;DHT22;9382;53.242;10.438;2022-07-23T03:08:14;14.00;99.90
18506;DHT22;9382;53.242;10.438;2022-07-23T03:10:40;13.90;99.90
18506;DHT22;9382;53.242;10.438;2022-07-23T03:13:07;13.90;99.90
18506;DHT22;9382;53.242;10.438;2022-07-23T03:15:34;13.90;99.90
18506;DHT22;9382;53.242;10.438;2022-07-23T03:18:00;13.80;99.90
18506;DHT22;9382;53.242;10.438;2022-07-23T03:20:27;13.90;99.90
18506;DHT22;9382;53.242;10.438;2022-07-23T03:22:55;13.90;99.90
18506;DHT22;9382;53.242;10.438;2022-07-23T03:25:22;13.80;99.90
18506;DHT22;9382;53.242;10.438;2022-07-23T03:27:49;13.80;99.90
18506;DHT22;9382;53.242;10.438;2022-07-23T03:30:16;13.80;99.90
18506;DHT22;9382;53.242;10.438;2022-07-23T03:32:42;13.70;99.90
18506;DHT22;9382;53.242;10.438;2022-07-23T03:35:10;13.70;99.90
18506;DHT22;9382;53.242;10.438;2022-07-23T03:37:37;13.60;99.90
18506;DHT22;9382;53.242;10.438;2022-07-23T03:40:06;13.70;99.90
18506;DHT22;9382;53.242;10.438;2022-07-23T03:42:33;13.60;99.90
18506;DHT22;9382;53.242;10.438;2022-07-23T03:45:00;13.70;99.90
18506;DHT22;9382;53.242;10.438;2022-07-23T03:47:27;13.70;99.90
18506;DHT22;9382;53.242;10.438;2022-07-23T03:49:53;13.70;99.90
18506;DHT22;9382;53.242;10.438;2022-07-23T03:52:20;13.70;99.90
18506;DHT22;9382;53.242;10.438;2022-07-23T03:54:47;13.70;99.90
18506;DHT22;9382;53.242;10.438;2022-07-23T03:57:15;13.80;99.90
18506;DHT22;9382;53.242;10.438;2022-07-23T03:59:41;13.80;99.90
18506;DHT22;9382;53.242;10.438;2022-07-23T04:02:08;13.80;99.90
18506;DHT22;9382;53.242;10.438;2022-07-23T04:04:35;13.90;99.90
18506;DHT22;9382;53.242;10.438;2022-07-23T04:07:02;14.00;99.90
18506;DHT22;9382;53.242;10.438;2022-07-23T04:09:29;14.00;99.90
18506;DHT22;9382;53.242;10.438;2022-07-23T04:11:55;14.00;99.90
18506;DHT22;9382;53.242;10.438;2022-07-23T04:14:23;14.10;99.90
18506;DHT22;9382;53.242;10.438;2022-07-23T04:16:50;14.20;99.90
18506;DHT22;9382;53.242;10.438;2022-07-23T04:19:17;14.20;99.90
18506;DHT22;9382;53.242;10.438;2022-07-23T04:21:43;14.30;99.90
18506;DHT22;9382;53.242;10.438;2022-07-23T04:24:10;14.30;99.90
18506;DHT22;9382;53.242;10.438;2022-07-23T04:26:37;14.30;99.90
18506;DHT22;9382;53.242;10.438;2022-07-23T04:29:04;14.30;99.90
18506;DHT22;9382;53.242;10.438;2022-07-23T04:31:32;14.30;99.90
18506;DHT22;9382;53.242;10.438;2022-07-23T04:33:58;14.30;99.90
18506;DHT22;9382;53.242;10.438;2022-07-23T04:36:25;14.30;99.90
18506;DHT22;9382;53.242;10.438;2022-07-23T04:38:52;14.40;99.90
18506;DHT22;9382;53.242;10.438;2022-07-23T04:41:18;14.40;99.90
18506;DHT22;9382;53.242;10.438;2022-07-23T04:43:46;14.40;99.90
18506;DHT22;9382;53.242;10.438;2022-07-23T04:46:12;14.40;99.90
18506;DHT22;9382;53.242;10.438;2022-07-23T04:48:40;14.40;99.90
18506;DHT22;9382;53.242;10.438;2022-07-23T04:51:08;14.40;99.90
18506;DHT22;9382;53.242;10.438;2022-07-23T04:53:36;14.40;99.90
18506;DHT22;9382;53.242;10.438;2022-07-23T04:56:04;14.40;99.90
18506;DHT22;9382;53.242;10.438;2022-07-23T04:58:30;14.40;99.90
18506;DHT22;9382;53.242;10.438;2022-07-23T05:00:58;14.40;99.90
18506;DHT22;9382;53.242;10.438;2022-07-23T05:03:24;14.40;99.90
18506;DHT22;9382;53.242;10.438;2022-07-23T05:05:53;14.40;99.90
18506;DHT22;9382;53.242;10.438;2022-07-23T05:08:19;14.40;99.90
18506;DHT22;9382;53.242;10.438;2022-07-23T05:10:46;14.40;99.90
18506;DHT22;9382;53.242;10.438;2022-07-23T05:13:14;14.50;99.90
18506;DHT22;9382;53.242;10.438;2022-07-23T05:15:41;14.40;99.90
18506;DHT22;9382;53.242;10.438;2022-07-23T05:18:08;14.40;99.90
18506;DHT22;9382;53.242;10.438;2022-07-23T05:20:35;14.40;99.90
18506;DHT22;9382;53.242;10.438;2022-07-23T05:23:03;14.40;99.90
18506;DHT22;9382;53.242;10.438;2022-07-23T05:25:30;14.40;99.90
18506;DHT22;9382;53.242;10.438;2022-07-23T05:27:57;14.40;99.90
18506;DHT22;9382;53.242;10.438;2022-07-23T05:30:23;14.40;99.90
18506;DHT22;9382;53.242;10.438;2022-07-23T05:32:50;14.40;99.90
18506;DHT22;9382;53.242;10.438;2022-07-23T05:35:17;14.40;99.90
18506;DHT22;9382;53.242;10.438;2022-07-23T05:37:44;14.40;99.90
18506;DHT22;9382;53.242;10.438;2022-07-23T05:40:12;14.50;99.90
18506;DHT22;9382;53.242;10.438;2022-07-23T05:42:40;14.50;99.90
18506;DHT22;9382;53.242;10.438;2022-07-23T05:45:08;14.60;99.90
18506;DHT22;9382;53.242;10.438;2022-07-23T05:47:42;14.70;99.90
18506;DHT22;9382;53.242;10.438;2022-07-23T05:50:10;14.60;99.90
18506;DHT22;9382;53.242;10.438;2022-07-23T05:52:36;14.60;99.90
18506;DHT22;9382;53.242;10.438;2022-07-23T05:55:04;14.60;99.90
18506;DHT22;9382;53.242;10.438;2022-07-23T05:57:32;14.50;99.90
18506;DHT22;9382;53.242;10.438;2022-07-23T05:59:59;14.50;99.90
18506;DHT22;9382;53.242;10.438;2022-07-23T06:02:26;14.50;99.90
18506;DHT22;9382;53.242;10.438;2022-07-23T06:04:53;14.50;99.90
18506;DHT22;9382;53.242;10.438;2022-07-23T06:07:20;14.60;99.90
18506;DHT22;9382;53.242;10.438;2022-07-23T06:09:46;14.60;99.90
18506;DHT22;9382;53.242;10.438;2022-07-23T06:12:14;14.60;99.90
18506;DHT22;9382;53.242;10.438;2022-07-23T06:14:42;14.60;99.90
18506;DHT22;9382;53.242;10.438;2022-07-23T06:17:09;14.70;99.90
18506;DHT22;9382;53.242;10.438;2022-07-23T06:19:36;14.90;99.90
18506;DHT22;9382;53.242;10.438;2022-07-23T06:22:03;14.90;99.90
18506;DHT22;9382;53.242;10.438;2022-07-23T06:24:29;15.00;99.90
18506;DHT22;9382;53.242;10.438;2022-07-23T06:26:56;15.10;99.90
18506;DHT22;9382;53.242;10.438;2022-07-23T06:29:23;15.30;99.90
18506;DHT22;9382;53.242;10.438;2022-07-23T06:31:51;15.40;99.90
18506;DHT22;9382;53.242;10.438;2022-07-23T06:34:18;15.60;99.90
18506;DHT22;9382;53.242;10.438;2022-07-23T06:36:44;15.70;99.90
18506;DHT22;9382;53.242;10.438;2022-07-23T06:39:11;16.00;99.90
18506;DHT22;9382;53.242;10.438;2022-07-23T06:41:38;16.20;99.90
18506;DHT22;9382;53.242;10.438;2022-07-23T06:44:05;16.30;99.90
18506;DHT22;9382;53.242;10.438;2022-07-23T06:46:31;16.30;99.90
18506;DHT22;9382;53.242;10.438;2022-07-23T06:49:00;16.40;99.90
18506;DHT22;9382;53.242;10.438;2022-07-23T06:51:27;16.60;99.90
18506;DHT22;9382;53.242;10.438;2022-07-23T06:53:53;16.80;99.90
18506;DHT22;9382;53.242;10.438;2022-07-23T06:56:20;16.80;99.90
18506;DHT22;9382;53.242;10.438;2022-07-23T06:58:47;16.80;99.90
18506;DHT22;9382;53.242;10.438;2022-07-23T07:01:13;16.70;99.90
18506;DHT22;9382;53.242;10.438;2022-07-23T07:03:40;16.70;99.90
18506;DHT22;9382;53.242;10.438;2022-07-23T07:06:08;16.90;99.90
18506;DHT22;9382;53.242;10.438;2022-07-23T07:08:35;17.00;99.90
18506;DHT22;9382;53.242;10.438;2022-07-23T07:11:02;17.30;99.90
18506;DHT22;9382;53.242;10.438;2022-07-23T07:13:29;17.20;99.90
18506;DHT22;9382;53.242;10.438;2022-07-23T07:15:57;17.30;99.90
18506;DHT22;9382;53.242;10.438;2022-07-23T07:18:23;17.40;99.90
18506;DHT22;9382;53.242;10.438;2022-07-23T07:20:50;17.70;99.90
18506;DHT22;9382;53.242;10.438;2022-07-23T07:23:18;17.80;99.90
18506;DHT22;9382;53.242;10.438;2022-07-23T07:25:45;18.00;99.90
18506;DHT22;9382;53.242;10.438;2022-07-23T07:28:12;18.10;99.90
18506;DHT22;9382;53.242;10.438;2022-07-23T07:30:39;18.20;99.90
18506;DHT22;9382;53.242;10.438;2022-07-23T07:33:06;18.30;99.90
18506;DHT22;9382;53.242;10.438;2022-07-23T07:35:32;18.50;99.90
18506;DHT22;9382;53.242;10.438;2022-07-23T07:37:59;18.70;99.90
18506;DHT22;9382;53.242;10.438;2022-07-23T07:40:27;19.00;99.90
18506;DHT22;9382;53.242;10.438;2022-07-23T07:42:54;19.10;99.90
18506;DHT22;9382;53.242;10.438;2022-07-23T07:45:23;19.10;99.90
18506;DHT22;9382;53.242;10.438;2022-07-23T07:47:51;18.80;99.90
18506;DHT22;9382;53.242;10.438;2022-07-23T07:50:18;18.70;99.90
18506;DHT22;9382;53.242;10.438;2022-07-23T07:52:45;18.70;99.90
18506;DHT22;9382;53.242;10.438;2022-07-23T07:55:12;18.90;99.90
18506;DHT22;9382;53.242;10.438;2022-07-23T07:57:40;19.20;99.90
18506;DHT22;9382;53.242;10.438;2022-07-23T08:00:09;19.10;99.90
18506;DHT22;9382;53.242;10.438;2022-07-23T08:02:44;19.30;99.90
18506;DHT22;9382;53.242;10.438;2022-07-23T08:05:12;19.30;99.90
18506;DHT22;9382;53.242;10.438;2022-07-23T08:07:38;19.30;99.90
18506;DHT22;9382;53.242;10.438;2022-07-23T08:10:06;19.40;99.90
18506;DHT22;9382;53.242;10.438;2022-07-23T08:12:45;19.50;99.90
18506;DHT22;9382;53.242;10.438;2022-07-23T08:15:14;19.40;99.90
18506;DHT22;9382;53.242;10.438;2022-07-23T08:17:41;19.30;99.90
18506;DHT22;9382;53.242;10.438;2022-07-23T08:20:10;19.50;99.90
18506;DHT22;9382;53.242;10.438;2022-07-23T08:22:45;19.60;99.90
18506;DHT22;9382;53.242;10.438;2022-07-23T08:25:12;19.60;99.90
18506;DHT22;9382;53.242;10.438;2022-07-23T08:27:39;19.60;99.90
18506;DHT22;9382;53.242;10.438;2022-07-23T08:30:08;19.50;99.90
18506;DHT22;9382;53.242;10.438;2022-07-23T08:32:48;19.40;99.90
18506;DHT22;9382;53.242;10.438;2022-07-23T08:35:15;19.40;99.90
18506;DHT22;9382;53.242;10.438;2022-07-23T08:37:42;19.50;99.90
18506;DHT22;9382;53.242;10.438;2022-07-23T08:40:10;19.70;99.90
18506;DHT22;9382;53.242;10.438;2022-07-23T08:42:38;19.80;99.90
18506;DHT22;9382;53.242;10.438;2022-07-23T08:45:08;19.80;99.90
18506;DHT22;9382;53.242;10.438;2022-07-23T08:47:37;19.50;99.90
18506;DHT22;9382;53.242;10.438;2022-07-23T08:50:05;19.30;99.90
18506;DHT22;9382;53.242;10.438;2022-07-23T08:52:34;19.30;99.90
18506;DHT22;9382;53.242;10.438;2022-07-23T08:55:03;19.30;99.90
18506;DHT22;9382;53.242;10.438;2022-07-23T08:57:29;19.70;99.90
18506;DHT22;9382;53.242;10.438;2022-07-23T08:59:56;19.90;99.90
18506;DHT22;9382;53.242;10.438;2022-07-23T09:02:24;19.90;99.90
18506;DHT22;9382;53.242;10.438;2022-07-23T09:04:51;20.00;99.90
18506;DHT22;9382;53.242;10.438;2022-07-23T09:07:18;20.50;99.90
18506;DHT22;9382;53.242;10.438;2022-07-23T09:09:45;21.00;99.90
18506;DHT22;9382;53.242;10.438;2022-07-23T09:12:11;21.00;99.90
18506;DHT22;9382;53.242;10.438;2022-07-23T09:14:40;20.70;99.90
18506;DHT22;9382;53.242;10.438;2022-07-23T09:17:11;20.30;99.90
18506;DHT22;9382;53.242;10.438;2022-07-23T09:19:40;20.10;99.90
18506;DHT22;9382;53.242;10.438;2022-07-23T09:22:18;19.90;99.90
18506;DHT22;9382;53.242;10.438;2022-07-23T09:25:03;19.70;99.90
18506;DHT22;9382;53.242;10.438;2022-07-23T09:27:50;19.50;99.90
18506;DHT22;9382;53.242;10.438;2022-07-23T09:30:18;19.30;99.90
18506;DHT22;9382;53.242;10.438;2022-07-23T09:33:03;19.60;99.90
18506;DHT22;9382;53.242;10.438;2022-07-23T09:35:49;20.50;99.90
18506;DHT22;9382;53.242;10.438;2022-07-23T09:38:17;21.20;99.90
18506;DHT22;9382;53.242;10.438;2022-07-23T09:40:45;21.50;99.90
18506;DHT22;9382;53.242;10.438;2022-07-23T09:43:12;21.20;99.90
18506;DHT22;9382;53.242;10.438;2022-07-23T09:45:39;21.20;99.90
18506;DHT22;9382;53.242;10.438;2022-07-23T09:48:13;20.80;99.90
18506;DHT22;9382;53.242;10.438;2022-07-23T09:50:41;20.50;99.90
18506;DHT22;9382;53.242;10.438;2022-07-23T09:53:09;20.40;99.90
18506;DHT22;9382;53.242;10.438;2022-07-23T09:55:37;20.10;99.90
18506;DHT22;9382;53.242;10.438;2022-07-23T09:58:05;19.80;99.90
18506;DHT22;9382;53.242;10.438;2022-07-23T10:00:32;19.70;99.90
18506;DHT22;9382;53.242;10.438;2022-07-23T10:02:59;19.60;99.90
18506;DHT22;9382;53.242;10.438;2022-07-23T10:05:27;19.80;99.90
18506;DHT22;9382;53.242;10.438;2022-07-23T10:07:55;19.90;99.90
18506;DHT22;9382;53.242;10.438;2022-07-23T10:10:26;20.20;99.90
18506;DHT22;9382;53.242;10.438;2022-07-23T10:12:54;20.50;99.90
18506;DHT22;9382;53.242;10.438;2022-07-23T10:15:40;20.60;99.90
18506;DHT22;9382;53.242;10.438;2022-07-23T10:18:07;20.70;99.90
18506;DHT22;9382;53.242;10.438;2022-07-23T10:20:36;20.90;99.90
18506;DHT22;9382;53.242;10.438;2022-07-23T10:23:10;21.10;99.90
18506;DHT22;9382;53.242;10.438;2022-07-23T10:25:46;21.30;99.90
18506;DHT22;9382;53.242;10.438;2022-07-23T10:28:41;21.10;99.90
18506;DHT22;9382;53.242;10.438;2022-07-23T10:31:17;21.00;99.90
18506;DHT22;9382;53.242;10.438;2022-07-23T10:33:55;20.60;99.90
18506;DHT22;9382;53.242;10.438;2022-07-23T10:36:29;20.70;99.90
18506;DHT22;9382;53.242;10.438;2022-07-23T10:39:05;20.90;99.90
18506;DHT22;9382;53.242;10.438;2022-07-23T10:41:35;21.30;99.90
18506;DHT22;9382;53.242;10.438;2022-07-23T10:44:09;21.50;99.90
18506;DHT22;9382;53.242;10.438;2022-07-23T10:46:46;21.40;99.90
18506;DHT22;9382;53.242;10.438;2022-07-23T10:49:26;21.20;99.90
18506;DHT22;9382;53.242;10.438;2022-07-23T10:52:16;21.30;99.90
18506;DHT22;9382;53.242;10.438;2022-07-23T10:54:43;21.30;99.90
18506;DHT22;9382;53.242;10.438;2022-07-23T10:57:12;21.50;99.90
18506;DHT22;9382;53.242;10.438;2022-07-23T11:02:45;22.20;99.90
18506;DHT22;9382;53.242;10.438;2022-07-23T11:05:14;22.90;99.90
18506;DHT22;9382;53.242;10.438;2022-07-23T11:10:53;23.00;99.90
18506;DHT22;9382;53.242;10.438;2022-07-23T11:13:45;22.80;99.90
18506;DHT22;9382;53.242;10.438;2022-07-23T11:16:14;22.30;99.90
18506;DHT22;9382;53.242;10.438;2022-07-23T11:19:04;22.00;99.90
18506;DHT22;9382;53.242;10.438;2022-07-23T11:21:43;21.70;99.90
18506;DHT22;9382;53.242;10.438;2022-07-23T11:24:11;21.90;99.90
18506;DHT22;9382;53.242;10.438;2022-07-23T11:26:56;22.50;99.90
18506;DHT22;9382;53.242;10.438;2022-07-23T11:29:44;22.80;99.90
18506;DHT22;9382;53.242;10.438;2022-07-23T11:32:29;23.10;99.90
18506;DHT22;9382;53.242;10.438;2022-07-23T11:34:56;23.30;99.90
18506;DHT22;9382;53.242;10.438;2022-07-23T11:37:40;23.40;99.90
18506;DHT22;9382;53.242;10.438;2022-07-23T11:40:09;23.70;99.90
18506;DHT22;9382;53.242;10.438;2022-07-23T11:42:38;23.70;99.90
18506;DHT22;9382;53.242;10.438;2022-07-23T11:45:08;23.80;99.90
18506;DHT22;9382;53.242;10.438;2022-07-23T11:47:35;23.90;99.90
18506;DHT22;9382;53.242;10.438;2022-07-23T11:50:05;23.80;99.90
18506;DHT22;9382;53.242;10.438;2022-07-23T11:52:32;23.60;99.90
18506;DHT22;9382;53.242;10.438;2022-07-23T11:55:01;23.40;99.90
18506;DHT22;9382;53.242;10.438;2022-07-23T11:57:30;23.50;99.90
18506;DHT22;9382;53.242;10.438;2022-07-23T12:00:02;23.20;99.90
18506;DHT22;9382;53.242;10.438;2022-07-23T12:02:31;23.00;99.90
18506;DHT22;9382;53.242;10.438;2022-07-23T12:04:58;23.00;99.90
18506;DHT22;9382;53.242;10.438;2022-07-23T12:07:26;23.20;99.90
18506;DHT22;9382;53.242;10.438;2022-07-23T12:09:54;23.20;99.90
18506;DHT22;9382;53.242;10.438;2022-07-23T12:12:22;23.00;99.90
18506;DHT22;9382;53.242;10.438;2022-07-23T12:14:50;22.90;99.90
18506;DHT22;9382;53.242;10.438;2022-07-23T12:17:17;22.60;99.90
18506;DHT22;9382;53.242;10.438;2022-07-23T12:19:45;22.30;99.90
18506;DHT22;9382;53.242;10.438;2022-07-23T12:22:13;22.00;99.90
18506;DHT22;9382;53.242;10.438;2022-07-23T12:24:56;21.90;99.90
18506;DHT22;9382;53.242;10.438;2022-07-23T12:27:24;22.00;99.90
18506;DHT22;9382;53.242;10.438;2022-07-23T12:29:51;22.40;99.90
18506;DHT22;9382;53.242;10.438;2022-07-23T12:32:20;22.90;99.90
18506;DHT22;9382;53.242;10.438;2022-07-23T12:34:50;23.20;99.90
18506;DHT22;9382;53.242;10.438;2022-07-23T12:37:27;23.10;99.90
18506;DHT22;9382;53.242;10.438;2022-07-23T12:39:54;23.10;99.90
18506;DHT22;9382;53.242;10.438;2022-07-23T12:42:21;23.10;99.90
18506;DHT22;9382;53.242;10.438;2022-07-23T12:45:09;23.30;99.90
18506;DHT22;9382;53.242;10.438;2022-07-23T12:47:53;23.80;99.90
18506;DHT22;9382;53.242;10.438;2022-07-23T12:50:43;24.70;99.90
18506;DHT22;9382;53.242;10.438;2022-07-23T12:53:13;25.90;99.90
18506;DHT22;9382;53.242;10.438;2022-07-23T12:55:41;25.60;99.90
18506;DHT22;9382;53.242;10.438;2022-07-23T12:58:12;24.80;99.90
18506;DHT22;9382;53.242;10.438;2022-07-23T13:01:02;24.50;99.90
18506;DHT22;9382;53.242;10.438;2022-07-23T13:03:35;24.60;99.90
18506;DHT22;9382;53.242;10.438;2022-07-23T13:06:05;24.70;99.90
18506;DHT22;9382;53.242;10.438;2022-07-23T13:08:34;24.30;99.90
18506;DHT22;9382;53.242;10.438;2022-07-23T13:11:02;24.10;99.90
18506;DHT22;9382;53.242;10.438;2022-07-23T13:13:31;25.50;99.90
18506;DHT22;9382;53.242;10.438;2022-07-23T13:15:59;26.20;99.90
18506;DHT22;9382;53.242;10.438;2022-07-23T13:18:27;25.20;99.90
18506;DHT22;9382;53.242;10.438;2022-07-23T13:20:54;24.50;99.90
18506;DHT22;9382;53.242;10.438;2022-07-23T13:23:23;24.10;99.90
18506;DHT22;9382;53.242;10.438;2022-07-23T13:25:51;23.60;99.90
18506;DHT22;9382;53.242;10.438;2022-07-23T13:28:18;23.20;99.90
18506;DHT22;9382;53.242;10.438;2022-07-23T13:30:47;23.20;99.90
18506;DHT22;9382;53.242;10.438;2022-07-23T13:33:15;23.20;99.90
18506;DHT22;9382;53.242;10.438;2022-07-23T13:35:42;23.30;99.90
18506;DHT22;9382;53.242;10.438;2022-07-23T13:38:09;23.80;99.90
18506;DHT22;9382;53.242;10.438;2022-07-23T13:40:39;24.70;99.90
18506;DHT22;9382;53.242;10.438;2022-07-23T13:43:08;25.90;99.90
18506;DHT22;9382;53.242;10.438;2022-07-23T13:45:35;25.70;99.90
18506;DHT22;9382;53.242;10.438;2022-07-23T13:48:03;25.50;99.90
18506;DHT22;9382;53.242;10.438;2022-07-23T13:50:30;25.00;99.90
18506;DHT22;9382;53.242;10.438;2022-07-23T13:53:00;24.50;99.90
18506;DHT22;9382;53.242;10.438;2022-07-23T13:55:27;24.00;99.90
18506;DHT22;9382;53.242;10.438;2022-07-23T13:57:55;23.10;99.90
18506;DHT22;9382;53.242;10.438;2022-07-23T14:00:22;22.60;99.90
18506;DHT22;9382;53.242;10.438;2022-07-23T14:02:49;22.30;99.90
18506;DHT22;9382;53.242;10.438;2022-07-23T14:05:16;22.10;99.90
18506;DHT22;9382;53.242;10.438;2022-07-23T14:07:42;22.20;99.90
18506;DHT22;9382;53.242;10.438;2022-07-23T14:10:10;22.50;99.90
18506;DHT22;9382;53.242;10.438;2022-07-23T14:12:37;24.10;99.90
18506;DHT22;9382;53.242;10.438;2022-07-23T14:15:06;25.10;99.90
18506;DHT22;9382;53.242;10.438;2022-07-23T14:17:35;25.70;99.90
18506;DHT22;9382;53.242;10.438;2022-07-23T14:20:03;26.30;99.90
18506;DHT22;9382;53.242;10.438;2022-07-23T14:22:29;25.90;99.90
18506;DHT22;9382;53.242;10.438;2022-07-23T14:24:56;25.70;99.90
18506;DHT22;9382;53.242;10.438;2022-07-23T14:27:24;25.50;99.90
18506;DHT22;9382;53.242;10.438;2022-07-23T14:29:51;25.40;99.90
18506;DHT22;9382;53.242;10.438;2022-07-23T14:32:19;25.10;99.90
18506;DHT22;9382;53.242;10.438;2022-07-23T14:34:46;24.80;99.90
18506;DHT22;9382;53.242;10.438;2022-07-23T14:37:13;24.40;99.90
18506;DHT22;9382;53.242;10.438;2022-07-23T14:39:41;24.20;99.90
18506;DHT22;9382;53.242;10.438;2022-07-23T14:42:08;24.60;99.90
18506;DHT22;9382;53.242;10.438;2022-07-23T14:44:36;26.10;99.90
18506;DHT22;9382;53.242;10.438;2022-07-23T14:47:04;26.20;99.90
18506;DHT22;9382;53.242;10.438;2022-07-23T14:49:33;26.50;99.90
18506;DHT22;9382;53.242;10.438;2022-07-23T14:52:01;26.40;99.90
18506;DHT22;9382;53.242;10.438;2022-07-23T14:54:29;25.70;99.90
18506;DHT22;9382;53.242;10.438;2022-07-23T14:56:57;25.10;99.90
18506;DHT22;9382;53.242;10.438;2022-07-23T14:59:25;24.90;99.90
18506;DHT22;9382;53.242;10.438;2022-07-23T15:01:52;24.80;99.90
18506;DHT22;9382;53.242;10.438;2022-07-23T15:04:19;24.60;99.90
18506;DHT22;9382;53.242;10.438;2022-07-23T15:06:48;24.20;99.90
18506;DHT22;9382;53.242;10.438;2022-07-23T15:09:15;24.00;99.90
18506;DHT22;9382;53.242;10.438;2022-07-23T15:11:41;24.20;99.90
18506;DHT22;9382;53.242;10.438;2022-07-23T15:14:08;24.10;99.90
18506;DHT22;9382;53.242;10.438;2022-07-23T15:16:35;23.90;99.90
18506;DHT22;9382;53.242;10.438;2022-07-23T15:19:03;23.70;99.90
18506;DHT22;9382;53.242;10.438;2022-07-23T15:21:30;23.60;99.90
18506;DHT22;9382;53.242;10.438;2022-07-23T15:23:59;23.30;99.90
18506;DHT22;9382;53.242;10.438;2022-07-23T15:26:26;23.10;99.90
18506;DHT22;9382;53.242;10.438;2022-07-23T15:28:53;23.50;99.90
18506;DHT22;9382;53.242;10.438;2022-07-23T15:31:19;23.60;99.90
18506;DHT22;9382;53.242;10.438;2022-07-23T15:33:46;23.60;99.90
18506;DHT22;9382;53.242;10.438;2022-07-23T15:36:13;23.50;99.90
18506;DHT22;9382;53.242;10.438;2022-07-23T15:38:40;23.40;99.90
18506;DHT22;9382;53.242;10.438;2022-07-23T15:41:08;23.70;99.90
18506;DHT22;9382;53.242;10.438;2022-07-23T15:43:35;25.30;99.90
18506;DHT22;9382;53.242;10.438;2022-07-23T15:46:02;26.60;99.90